Time;durP1;ratioP1;P1;durP2;ratioP2;P2;SDS_P1;SDS_P2;PMS_P1;PMS_P2;Temp;Humidity;BMP_temperature;BMP_pressure;BME280_temperature;BME280_humidity;BME280_pressure;Samples;Min_cycle;Max_cycle;Signal;HPM_P1;HPM_P2
2023/07/26 00:02:18;;;;;;;14.40;6.10;;;;;;;;;;770126;179;917221;-58
2023/07/26 00:04:44;;;;;;;11.50;6.90;;;;;;;;;;779133;180;919250;-58
2023/07/26 00:07:09;;;;;;;16.40;6.40;;;;;;;;;;773873;180;921319;-58
2023/07/26 00:09:35;;;;;;;12.97;6.40;;;;;;;;;;770698;179;921441;-64
2023/07/26 00:12:01;;;;;;;13.18;6.68;;;;;;;;;;773818;180;918081;-58
2023/07/26 00:14:28;;;;;;;12.53;6.17;;;;;;;;;;777825;180;821098;-57
2023/07/26 00:16:53;;;;;;;11.60;5.90;;;;;;;;;;766841;180;919519;-58
2023/07/26 00:19:19;;;;;;;19.67;5.83;;;;;;;;;;772165;181;817059;-58
2023/07/26 00:21:45;;;;;;;14.40;6.40;;;;;;;;;;778412;179;921117;-65
2023/07/26 00:24:10;;;;;;;14.57;7.10;;;;;;;;;;776288;179;915142;-58
2023/07/26 00:26:36;;;;;;;17.27;6.90;;;;;;;;;;770108;180;919322;-65
2023/07/26 00:29:02;;;;;;;18.50;8.13;;;;;;;;;;771037;180;911732;-66
2023/07/26 00:31:28;;;;;;;17.37;6.50;;;;;;;;;;775592;178;915687;-65
2023/07/26 00:33:54;;;;;;;18.40;6.80;;;;;;;;;;772070;180;904211;-57
2023/07/26 00:36:20;;;;;;;21.60;7.00;;;;;;;;;;775277;180;919213;-64
2023/07/26 00:38:46;;;;;;;17.93;6.90;;;;;;;;;;771549;180;919464;-57
2023/07/26 00:41:11;;;;;;;17.10;7.10;;;;;;;;;;778202;179;822590;-65
2023/07/26 00:43:37;;;;;;;12.20;6.50;;;;;;;;;;770863;180;919602;-64
2023/07/26 00:46:03;;;;;;;19.33;8.07;;;;;;;;;;775608;180;923762;-65
2023/07/26 00:48:29;;;;;;;19.00;7.70;;;;;;;;;;766979;180;921218;-66
2023/07/26 00:50:55;;;;;;;11.67;6.13;;;;;;;;;;777299;180;914588;-65
2023/07/26 00:53:20;;;;;;;13.17;7.10;;;;;;;;;;774985;180;912879;-58
2023/07/26 00:55:46;;;;;;;17.80;7.83;;;;;;;;;;774147;180;923050;-58
2023/07/26 00:58:12;;;;;;;21.90;7.37;;;;;;;;;;777455;179;920224;-58
2023/07/26 01:00:38;;;;;;;9.97;6.63;;;;;;;;;;776968;180;919149;-58
2023/07/26 01:03:04;;;;;;;18.90;6.43;;;;;;;;;;768875;181;919527;-58
2023/07/26 01:05:30;;;;;;;14.63;7.17;;;;;;;;;;767356;181;917527;-58
2023/07/26 01:08:06;;;;;;;10.60;7.00;;;;;;;;;;770476;179;920183;-64
2023/07/26 01:10:35;;;;;;;11.60;7.50;;;;;;;;;;778939;181;815985;-58
2023/07/26 01:13:01;;;;;;;22.33;8.30;;;;;;;;;;774255;180;919008;-67
2023/07/26 01:15:27;;;;;;;15.30;7.93;;;;;;;;;;767360;179;921699;-59
2023/07/26 01:18:10;;;;;;;18.20;7.43;;;;;;;;;;775480;180;916753;-59
2023/07/26 01:20:36;;;;;;;19.87;7.65;;;;;;;;;;771544;180;921415;-59
2023/07/26 01:23:02;;;;;;;16.03;6.90;;;;;;;;;;779190;180;952317;-59
2023/07/26 01:25:28;;;;;;;15.90;6.90;;;;;;;;;;777138;180;874059;-59
2023/07/26 01:27:54;;;;;;;21.33;7.20;;;;;;;;;;770877;180;918410;-59
2023/07/26 01:30:19;;;;;;;26.20;7.87;;;;;;;;;;776160;180;918174;-65
2023/07/26 01:32:45;;;;;;;21.10;8.50;;;;;;;;;;770250;178;919113;-59
2023/07/26 01:35:11;;;;;;;21.92;8.65;;;;;;;;;;774905;178;919785;-59
2023/07/26 01:37:37;;;;;;;22.87;8.90;;;;;;;;;;777844;180;869067;-66
2023/07/26 01:40:03;;;;;;;13.80;8.83;;;;;;;;;;773778;179;921748;-67
2023/07/26 01:42:29;;;;;;;12.47;7.90;;;;;;;;;;773555;180;921922;-66
2023/07/26 01:44:55;;;;;;;41.27;12.70;;;;;;;;;;774323;180;919784;-59
2023/07/26 01:47:21;;;;;;;17.43;7.70;;;;;;;;;;777704;179;818602;-66
2023/07/26 01:49:47;;;;;;;12.23;9.23;;;;;;;;;;773730;180;923093;-66
2023/07/26 01:52:13;;;;;;;19.40;8.80;;;;;;;;;;777337;180;920056;-66
2023/07/26 01:54:38;;;;;;;12.37;8.30;;;;;;;;;;773283;180;917739;-66
2023/07/26 01:57:05;;;;;;;16.63;9.07;;;;;;;;;;771470;179;917450;-66
2023/07/26 01:59:30;;;;;;;15.20;8.90;;;;;;;;;;771952;180;920404;-59
2023/07/26 02:01:56;;;;;;;20.52;10.77;;;;;;;;;;777673;180;817851;-66
2023/07/26 02:04:24;;;;;;;13.93;9.27;;;;;;;;;;772662;179;918052;-67
2023/07/26 02:06:48;;;;;;;17.40;10.20;;;;;;;;;;771703;180;891074;-66
2023/07/26 02:09:14;;;;;;;16.23;10.20;;;;;;;;;;773857;180;816002;-66
2023/07/26 02:11:40;;;;;;;16.03;9.73;;;;;;;;;;780823;179;918842;-66
2023/07/26 02:14:05;;;;;;;17.43;9.77;;;;;;;;;;774712;180;918800;-67
2023/07/26 02:16:31;;;;;;;26.05;11.12;;;;;;;;;;774989;181;914993;-66
2023/07/26 02:18:57;;;;;;;18.33;10.93;;;;;;;;;;778969;179;918420;-66
2023/07/26 02:21:23;;;;;;;21.50;10.53;;;;;;;;;;764364;181;919413;-66
2023/07/26 02:23:49;;;;;;;15.80;11.10;;;;;;;;;;772793;180;916854;-59
2023/07/26 02:26:15;;;;;;;15.57;10.57;;;;;;;;;;776043;180;896084;-59
2023/07/26 02:28:41;;;;;;;16.00;10.67;;;;;;;;;;773192;181;915442;-59
2023/07/26 02:31:06;;;;;;;15.13;9.07;;;;;;;;;;770075;180;919133;-66
2023/07/26 02:33:33;;;;;;;19.23;10.30;;;;;;;;;;768793;181;918502;-66
2023/07/26 02:35:59;;;;;;;17.43;11.07;;;;;;;;;;765284;181;919568;-68
2023/07/26 02:38:24;;;;;;;13.90;10.20;;;;;;;;;;767635;181;918970;-59
2023/07/26 02:40:50;;;;;;;16.30;10.60;;;;;;;;;;770910;180;918854;-66
2023/07/26 02:43:16;;;;;;;22.17;11.10;;;;;;;;;;774493;181;921517;-66
2023/07/26 02:45:41;;;;;;;17.93;10.57;;;;;;;;;;774515;179;924023;-59
2023/07/26 02:48:07;;;;;;;14.40;9.50;;;;;;;;;;776098;178;919515;-66
2023/07/26 02:50:33;;;;;;;13.13;10.30;;;;;;;;;;778784;179;919332;-59
2023/07/26 02:52:59;;;;;;;22.27;12.47;;;;;;;;;;769741;179;920271;-66
2023/07/26 02:55:25;;;;;;;18.05;9.90;;;;;;;;;;774458;178;830530;-59
2023/07/26 02:57:51;;;;;;;24.25;12.70;;;;;;;;;;772757;180;923262;-66
2023/07/26 03:00:17;;;;;;;19.43;13.17;;;;;;;;;;770650;179;919055;-66
2023/07/26 03:02:43;;;;;;;43.67;14.40;;;;;;;;;;777921;180;914406;-59
2023/07/26 03:05:09;;;;;;;22.73;13.33;;;;;;;;;;771950;179;915624;-66
2023/07/26 03:07:35;;;;;;;20.80;13.23;;;;;;;;;;779386;180;918702;-66
2023/07/26 03:10:00;;;;;;;20.93;13.83;;;;;;;;;;770292;178;919272;-59
2023/07/26 03:12:26;;;;;;;18.50;12.40;;;;;;;;;;772504;180;919907;-68
2023/07/26 03:14:52;;;;;;;15.07;13.00;;;;;;;;;;779100;180;920585;-59
2023/07/26 03:17:18;;;;;;;19.00;14.23;;;;;;;;;;774701;179;918410;-59
2023/07/26 03:19:44;;;;;;;17.20;14.60;;;;;;;;;;769184;179;919333;-59
2023/07/26 03:22:10;;;;;;;16.30;13.80;;;;;;;;;;778169;180;918543;-66
2023/07/26 03:24:35;;;;;;;25.57;14.50;;;;;;;;;;770735;180;922980;-66
2023/07/26 03:27:01;;;;;;;20.63;13.70;;;;;;;;;;768408;179;919011;-59
2023/07/26 03:29:27;;;;;;;18.27;14.80;;;;;;;;;;770042;180;921524;-66
2023/07/26 03:31:53;;;;;;;29.10;13.13;;;;;;;;;;780306;180;921516;-59
2023/07/26 03:34:19;;;;;;;21.80;12.50;;;;;;;;;;773136;180;919221;-59
2023/07/26 03:36:45;;;;;;;22.57;13.20;;;;;;;;;;774415;180;918320;-59
2023/07/26 03:39:10;;;;;;;21.93;13.20;;;;;;;;;;780111;179;919410;-67
2023/07/26 03:41:36;;;;;;;15.23;12.20;;;;;;;;;;772784;180;919784;-59
2023/07/26 03:44:02;;;;;;;18.33;12.93;;;;;;;;;;772894;179;820957;-59
2023/07/26 03:46:28;;;;;;;18.30;13.45;;;;;;;;;;779571;180;937975;-59
2023/07/26 03:48:54;;;;;;;15.47;12.53;;;;;;;;;;770556;180;918868;-59
2023/07/26 03:51:20;;;;;;;18.87;13.60;;;;;;;;;;773889;180;919816;-66
2023/07/26 03:53:46;;;;;;;23.12;12.93;;;;;;;;;;774749;180;918896;-66
2023/07/26 03:56:11;;;;;;;19.50;13.70;;;;;;;;;;775262;179;919069;-66
2023/07/26 03:58:37;;;;;;;16.27;11.90;;;;;;;;;;775698;179;916801;-59
2023/07/26 04:01:03;;;;;;;17.35;12.45;;;;;;;;;;772172;179;939434;-66
2023/07/26 04:03:29;;;;;;;13.37;11.80;;;;;;;;;;776512;179;917530;-67
2023/07/26 04:05:55;;;;;;;15.00;11.40;;;;;;;;;;775552;179;919775;-66
2023/07/26 04:08:21;;;;;;;16.60;9.97;;;;;;;;;;774098;179;924195;-66
2023/07/26 04:10:46;;;;;;;20.57;10.80;;;;;;;;;;775566;180;904579;-67
2023/07/26 04:13:12;;;;;;;15.10;10.70;;;;;;;;;;777092;179;918902;-66
2023/07/26 04:15:38;;;;;;;18.57;9.77;;;;;;;;;;775935;180;919233;-59
2023/07/26 04:18:04;;;;;;;11.93;9.80;;;;;;;;;;765343;180;918871;-59
2023/07/26 04:20:30;;;;;;;15.67;9.20;;;;;;;;;;769652;180;919623;-59
2023/07/26 04:22:56;;;;;;;14.23;7.83;;;;;;;;;;771716;180;912404;-66
2023/07/26 04:25:21;;;;;;;13.80;7.73;;;;;;;;;;777492;179;815321;-66
2023/07/26 04:27:47;;;;;;;10.10;8.30;;;;;;;;;;776183;180;919290;-66
2023/07/26 04:30:13;;;;;;;12.93;8.03;;;;;;;;;;773328;180;918730;-59
2023/07/26 04:32:39;;;;;;;10.43;8.90;;;;;;;;;;772928;179;921358;-59
2023/07/26 04:35:05;;;;;;;16.70;8.40;;;;;;;;;;778025;180;816738;-65
2023/07/26 04:37:31;;;;;;;10.67;7.93;;;;;;;;;;771287;179;919854;-59
2023/07/26 04:39:57;;;;;;;9.80;8.20;;;;;;;;;;761052;181;919167;-59
2023/07/26 04:42:23;;;;;;;8.50;7.70;;;;;;;;;;779693;180;816778;-67
2023/07/26 04:44:49;;;;;;;18.83;7.83;;;;;;;;;;775366;180;917312;-59
2023/07/26 04:47:15;;;;;;;11.57;8.40;;;;;;;;;;767646;181;919342;-65
2023/07/26 04:49:40;;;;;;;9.50;7.87;;;;;;;;;;770305;180;921433;-65
2023/07/26 04:52:07;;;;;;;10.03;8.10;;;;;;;;;;778116;180;862625;-66
2023/07/26 04:54:32;;;;;;;8.83;7.70;;;;;;;;;;776040;180;942057;-65
2023/07/26 04:56:58;;;;;;;14.23;7.37;;;;;;;;;;774237;180;917814;-59
2023/07/26 04:59:24;;;;;;;12.40;7.23;;;;;;;;;;777187;180;814235;-65
2023/07/26 05:01:50;;;;;;;11.17;7.17;;;;;;;;;;774896;180;918910;-59
2023/07/26 05:04:16;;;;;;;11.10;6.80;;;;;;;;;;772083;181;918768;-65
2023/07/26 05:06:42;;;;;;;8.97;6.80;;;;;;;;;;770135;180;919552;-59
2023/07/26 05:09:08;;;;;;;11.60;7.53;;;;;;;;;;777102;179;915951;-59
2023/07/26 05:11:33;;;;;;;12.33;7.30;;;;;;;;;;773067;180;919541;-65
2023/07/26 05:13:59;;;;;;;12.20;7.77;;;;;;;;;;768773;180;902001;-65
2023/07/26 05:16:25;;;;;;;10.10;8.23;;;;;;;;;;759456;184;921368;-58
2023/07/26 05:18:51;;;;;;;8.30;7.40;;;;;;;;;;762127;181;819923;-59
2023/07/26 05:21:17;;;;;;;11.47;7.30;;;;;;;;;;770221;180;919196;-65
2023/07/26 05:23:43;;;;;;;9.60;6.70;;;;;;;;;;777727;180;918421;-66
2023/07/26 05:26:08;;;;;;;8.43;7.37;;;;;;;;;;770043;179;923113;-59
2023/07/26 05:28:34;;;;;;;9.90;7.13;;;;;;;;;;774585;180;828171;-68
2023/07/26 05:31:00;;;;;;;9.43;6.80;;;;;;;;;;780932;179;921722;-66
2023/07/26 05:33:26;;;;;;;10.63;6.80;;;;;;;;;;773595;180;919307;-59
2023/07/26 05:35:52;;;;;;;9.40;7.00;;;;;;;;;;770210;180;921039;-58
2023/07/26 05:38:18;;;;;;;9.30;7.33;;;;;;;;;;766695;180;920126;-63
2023/07/26 05:40:44;;;;;;;9.63;8.10;;;;;;;;;;778290;180;817484;-58
2023/07/26 05:43:10;;;;;;;7.97;7.10;;;;;;;;;;770795;179;921304;-58
2023/07/26 05:45:36;;;;;;;9.33;7.10;;;;;;;;;;769952;179;949092;-58
2023/07/26 05:48:02;;;;;;;12.07;7.37;;;;;;;;;;775120;181;918282;-66
2023/07/26 05:50:27;;;;;;;9.70;8.33;;;;;;;;;;770557;181;818666;-60
2023/07/26 05:52:53;;;;;;;15.90;8.57;;;;;;;;;;772068;180;925340;-59
2023/07/26 05:55:19;;;;;;;9.43;7.93;;;;;;;;;;776534;180;914884;-66
2023/07/26 05:57:45;;;;;;;11.97;9.60;;;;;;;;;;768879;180;920404;-65
2023/07/26 06:00:13;;;;;;;15.10;8.90;;;;;;;;;;771491;180;911448;-60
2023/07/26 06:02:37;;;;;;;11.60;8.70;;;;;;;;;;777295;178;852016;-67
2023/07/26 06:05:05;;;;;;;13.63;8.43;;;;;;;;;;773111;180;920341;-59
2023/07/26 06:07:29;;;;;;;11.17;9.20;;;;;;;;;;771588;180;918793;-66
2023/07/26 06:09:55;;;;;;;12.10;10.20;;;;;;;;;;773146;180;818319;-66
2023/07/26 06:12:21;;;;;;;10.35;9.20;;;;;;;;;;781405;180;835297;-67
2023/07/26 06:14:46;;;;;;;14.17;9.60;;;;;;;;;;770418;180;918639;-61
2023/07/26 06:17:12;;;;;;;10.87;9.73;;;;;;;;;;773699;180;715465;-58
2023/07/26 06:19:38;;;;;;;9.93;8.90;;;;;;;;;;781436;179;919225;-59
2023/07/26 06:22:05;;;;;;;6.00;4.93;;;;;;;;;;774373;179;922455;-65
2023/07/26 06:24:30;;;;;;;6.33;2.97;;;;;;;;;;774663;180;917082;-58
2023/07/26 06:26:56;;;;;;;4.70;3.07;;;;;;;;;;777796;179;911937;-58
2023/07/26 06:29:22;;;;;;;5.60;2.70;;;;;;;;;;772287;180;918685;-68
2023/07/26 06:31:48;;;;;;;4.30;2.90;;;;;;;;;;773908;179;913480;-59
2023/07/26 06:34:13;;;;;;;4.60;2.63;;;;;;;;;;768102;180;928380;-59
2023/07/26 06:36:39;;;;;;;4.10;2.17;;;;;;;;;;774980;180;918740;-60
2023/07/26 06:39:05;;;;;;;3.43;2.20;;;;;;;;;;774643;180;917638;-59
2023/07/26 06:41:31;;;;;;;5.17;3.13;;;;;;;;;;769356;180;917467;-66
2023/07/26 06:43:57;;;;;;;2.97;1.73;;;;;;;;;;779852;180;921389;-59
2023/07/26 06:46:23;;;;;;;7.10;2.30;;;;;;;;;;772463;180;919256;-68
2023/07/26 06:48:49;;;;;;;9.33;2.20;;;;;;;;;;766149;180;919055;-60
2023/07/26 06:51:14;;;;;;;3.60;2.00;;;;;;;;;;781688;180;915215;-59
2023/07/26 06:53:40;;;;;;;3.30;2.10;;;;;;;;;;772941;180;919565;-68
2023/07/26 06:56:06;;;;;;;5.20;2.63;;;;;;;;;;773415;180;918614;-59
2023/07/26 06:58:32;;;;;;;6.43;3.00;;;;;;;;;;770858;181;919552;-66
2023/07/26 07:00:58;;;;;;;4.80;3.23;;;;;;;;;;773375;181;918444;-60
2023/07/26 07:03:24;;;;;;;4.70;2.93;;;;;;;;;;767211;179;919917;-60
2023/07/26 07:05:50;;;;;;;2.80;1.93;;;;;;;;;;774335;180;845469;-69
2023/07/26 07:08:16;;;;;;;4.60;2.37;;;;;;;;;;780135;180;919032;-68
2023/07/26 07:10:42;;;;;;;4.72;2.33;;;;;;;;;;769341;180;918718;-68
2023/07/26 07:13:07;;;;;;;6.50;2.40;;;;;;;;;;773120;179;811007;-60
2023/07/26 07:15:33;;;;;;;3.17;2.40;;;;;;;;;;778731;180;914502;-60
2023/07/26 07:17:59;;;;;;;6.80;2.77;;;;;;;;;;773972;179;921307;-60
2023/07/26 07:20:25;;;;;;;5.10;3.07;;;;;;;;;;772694;179;886215;-69
2023/07/26 07:22:52;;;;;;;2.90;1.90;;;;;;;;;;778266;179;920333;-59
2023/07/26 07:25:17;;;;;;;4.20;2.30;;;;;;;;;;773018;179;919417;-60
2023/07/26 07:27:44;;;;;;;3.50;2.00;;;;;;;;;;772941;179;919465;-60
2023/07/26 07:30:10;;;;;;;3.10;2.40;;;;;;;;;;774575;178;921895;-68
2023/07/26 07:32:35;;;;;;;3.27;2.13;;;;;;;;;;782868;178;910684;-60
2023/07/26 07:35:02;;;;;;;3.80;2.07;;;;;;;;;;772824;179;917585;-67
2023/07/26 07:37:27;;;;;;;4.75;2.10;;;;;;;;;;773483;179;918917;-68
2023/07/26 07:39:53;;;;;;;4.93;1.97;;;;;;;;;;779877;178;852633;-59
2023/07/26 07:42:19;;;;;;;3.20;2.10;;;;;;;;;;772562;180;916072;-60
2023/07/26 07:44:44;;;;;;;4.60;2.10;;;;;;;;;;774675;179;918888;-60
2023/07/26 07:47:10;;;;;;;3.17;1.80;;;;;;;;;;776985;180;918147;-60
2023/07/26 07:49:36;;;;;;;3.60;1.93;;;;;;;;;;766956;179;917956;-59
2023/07/26 07:52:02;;;;;;;3.10;2.00;;;;;;;;;;773563;179;919157;-68
2023/07/26 07:54:28;;;;;;;3.37;2.13;;;;;;;;;;768235;180;919545;-60
2023/07/26 07:56:54;;;;;;;3.37;2.07;;;;;;;;;;776159;180;864659;-68
2023/07/26 07:59:20;;;;;;;5.27;2.50;;;;;;;;;;777254;178;844668;-68
2023/07/26 08:01:45;;;;;;;3.00;1.70;;;;;;;;;;774294;179;919590;-68
2023/07/26 08:04:11;;;;;;;3.27;1.53;;;;;;;;;;777221;179;917890;-59
2023/07/26 08:06:37;;;;;;;6.50;1.77;;;;;;;;;;774836;179;918329;-68
2023/07/26 08:09:03;;;;;;;3.23;1.40;;;;;;;;;;769600;180;907314;-60
2023/07/26 08:11:29;;;;;;;3.50;1.87;;;;;;;;;;778421;179;918372;-70
2023/07/26 08:13:54;;;;;;;4.03;2.10;;;;;;;;;;773658;179;814009;-69
2023/07/26 08:16:20;;;;;;;3.80;1.60;;;;;;;;;;773377;179;919280;-69
2023/07/26 08:18:46;;;;;;;3.93;2.00;;;;;;;;;;772203;180;923128;-69
2023/07/26 08:21:12;;;;;;;2.20;1.40;;;;;;;;;;775371;180;917594;-70
2023/07/26 08:23:39;;;;;;;4.93;1.50;;;;;;;;;;772049;180;921014;-70
2023/07/26 08:26:04;;;;;;;3.47;1.90;;;;;;;;;;770572;181;919985;-71
2023/07/26 08:28:30;;;;;;;2.77;1.53;;;;;;;;;;779671;179;919854;-62
2023/07/26 08:30:55;;;;;;;3.20;1.30;;;;;;;;;;769418;179;935074;-69
2023/07/26 08:33:21;;;;;;;3.72;1.42;;;;;;;;;;775360;179;862207;-62
2023/07/26 08:35:47;;;;;;;2.30;1.30;;;;;;;;;;780745;179;918865;-63
2023/07/26 08:38:13;;;;;;;2.70;1.43;;;;;;;;;;774698;180;922295;-63
2023/07/26 08:40:44;;;;;;;4.80;1.67;;;;;;;;;;774758;180;921442;-69
2023/07/26 08:43:10;;;;;;;3.90;1.47;;;;;;;;;;777747;179;820156;-63
2023/07/26 08:45:35;;;;;;;2.93;1.57;;;;;;;;;;776461;179;818637;-62
2023/07/26 08:48:01;;;;;;;6.67;1.37;;;;;;;;;;775666;179;915038;-63
2023/07/26 08:50:27;;;;;;;2.87;1.63;;;;;;;;;;775698;180;918824;-63
2023/07/26 08:52:53;;;;;;;3.00;1.37;;;;;;;;;;778103;180;919430;-71
2023/07/26 08:55:19;;;;;;;3.40;1.23;;;;;;;;;;776415;180;823392;-70
2023/07/26 08:57:45;;;;;;;4.67;1.70;;;;;;;;;;771382;180;911035;-69
2023/07/26 09:00:11;;;;;;;3.60;2.07;;;;;;;;;;770142;180;920294;-71
2023/07/26 09:02:37;;;;;;;4.83;2.17;;;;;;;;;;768987;180;918253;-62
2023/07/26 09:05:03;;;;;;;3.07;1.60;;;;;;;;;;771492;178;821727;-69
2023/07/26 09:07:29;;;;;;;5.33;2.00;;;;;;;;;;775575;179;918336;-62
2023/07/26 09:09:55;;;;;;;3.23;1.70;;;;;;;;;;780611;180;919384;-68
2023/07/26 09:12:25;;;;;;;3.45;1.90;;;;;;;;;;769590;180;818219;-63
2023/07/26 09:14:51;;;;;;;6.93;2.00;;;;;;;;;;772827;179;918846;-62
2023/07/26 09:17:16;;;;;;;9.43;2.20;;;;;;;;;;776170;180;913526;-62
2023/07/26 09:19:42;;;;;;;3.23;1.70;;;;;;;;;;775337;181;816719;-68
2023/07/26 09:22:08;;;;;;;6.83;2.57;;;;;;;;;;772951;179;925729;-60
2023/07/26 09:24:35;;;;;;;3.03;1.70;;;;;;;;;;770520;180;907249;-68
2023/07/26 09:27:04;;;;;;;3.20;2.30;;;;;;;;;;776554;181;873538;-60
2023/07/26 09:29:30;;;;;;;10.63;2.07;;;;;;;;;;772019;180;914495;-61
2023/07/26 09:31:56;;;;;;;4.50;2.77;;;;;;;;;;776673;180;912749;-60
2023/07/26 09:34:22;;;;;;;7.33;3.30;;;;;;;;;;776453;180;915464;-61
2023/07/26 09:36:49;;;;;;;7.00;3.20;;;;;;;;;;765880;181;917852;-60
2023/07/26 09:39:14;;;;;;;4.07;2.70;;;;;;;;;;775270;180;916965;-61
2023/07/26 09:41:40;;;;;;;5.33;3.00;;;;;;;;;;779086;179;919495;-67
2023/07/26 09:44:06;;;;;;;6.60;2.57;;;;;;;;;;758649;181;918790;-68
2023/07/26 09:46:39;;;;;;;5.50;4.03;;;;;;;;;;769033;180;924392;-61
2023/07/26 09:49:05;;;;;;;5.50;3.80;;;;;;;;;;766838;180;920523;-67
2023/07/26 09:51:31;;;;;;;3.83;2.30;;;;;;;;;;773519;180;787571;-61
2023/07/26 09:53:57;;;;;;;3.77;2.30;;;;;;;;;;772512;179;945370;-68
2023/07/26 09:56:23;;;;;;;3.65;2.35;;;;;;;;;;767511;179;1739493;-61
2023/07/26 09:58:49;;;;;;;4.40;2.92;;;;;;;;;;779455;178;919980;-62
2023/07/26 10:01:15;;;;;;;10.87;9.77;;;;;;;;;;769199;180;919445;-62
2023/07/26 10:03:41;;;;;;;7.27;4.33;;;;;;;;;;772851;180;922940;-68
2023/07/26 10:06:06;;;;;;;16.33;12.52;;;;;;;;;;775431;178;922276;-68
2023/07/26 10:08:32;;;;;;;6.33;4.90;;;;;;;;;;784267;179;625295;-68
2023/07/26 10:10:58;;;;;;;4.13;2.87;;;;;;;;;;770023;180;919642;-62
2023/07/26 10:13:24;;;;;;;9.88;8.90;;;;;;;;;;775672;179;900732;-61
2023/07/26 10:15:50;;;;;;;8.70;7.80;;;;;;;;;;773503;180;853848;-60
2023/07/26 10:18:16;;;;;;;4.90;4.17;;;;;;;;;;777366;180;918519;-61
2023/07/26 10:20:42;;;;;;;17.27;15.10;;;;;;;;;;768906;180;818350;-61
2023/07/26 10:23:07;;;;;;;12.63;11.30;;;;;;;;;;770849;181;816531;-67
2023/07/26 10:25:33;;;;;;;8.50;4.30;;;;;;;;;;773281;179;921757;-61
2023/07/26 10:27:59;;;;;;;6.90;5.80;;;;;;;;;;775170;179;922225;-67
2023/07/26 10:30:25;;;;;;;4.40;3.57;;;;;;;;;;776329;178;918431;-67
2023/07/26 10:32:51;;;;;;;7.63;6.00;;;;;;;;;;779958;179;907858;-68
2023/07/26 10:35:22;;;;;;;4.63;2.90;;;;;;;;;;774949;180;915847;-68
2023/07/26 10:37:48;;;;;;;5.77;2.93;;;;;;;;;;768727;180;919645;-62
2023/07/26 10:40:20;;;;;;;3.92;2.83;;;;;;;;;;777175;179;811818;-67
2023/07/26 10:42:46;;;;;;;3.67;2.43;;;;;;;;;;775790;179;817060;-68
2023/07/26 10:45:12;;;;;;;3.77;2.53;;;;;;;;;;771559;180;919298;-61
2023/07/26 10:47:38;;;;;;;3.70;2.60;;;;;;;;;;773155;180;916802;-61
2023/07/26 10:50:03;;;;;;;5.07;2.47;;;;;;;;;;781122;180;915750;-62
2023/07/26 10:52:33;;;;;;;3.67;2.73;;;;;;;;;;773471;181;915317;-61
2023/07/26 10:54:59;;;;;;;3.97;2.67;;;;;;;;;;768906;180;917661;-61
2023/07/26 10:57:33;;;;;;;4.47;2.92;;;;;;;;;;776467;179;921085;-61
2023/07/26 10:59:59;;;;;;;4.17;2.73;;;;;;;;;;768523;181;921843;-68
2023/07/26 11:02:30;;;;;;;3.20;2.07;;;;;;;;;;765132;180;922978;-61
2023/07/26 11:04:56;;;;;;;4.47;2.57;;;;;;;;;;768725;178;917197;-61
2023/07/26 11:07:22;;;;;;;3.70;2.50;;;;;;;;;;771982;179;919598;-62
2023/07/26 11:09:50;;;;;;;3.90;2.20;;;;;;;;;;771937;180;918634;-68
2023/07/26 11:12:14;;;;;;;3.43;2.30;;;;;;;;;;770277;178;923478;-62
2023/07/26 11:14:41;;;;;;;3.20;2.20;;;;;;;;;;774730;179;919837;-62
2023/07/26 11:17:07;;;;;;;4.47;2.45;;;;;;;;;;782703;178;817507;-67
2023/07/26 11:19:33;;;;;;;3.27;2.17;;;;;;;;;;774446;180;921078;-67
2023/07/26 11:22:02;;;;;;;4.55;3.00;;;;;;;;;;770052;180;920948;-63
2023/07/26 11:24:28;;;;;;;6.10;3.90;;;;;;;;;;774393;180;918546;-62
2023/07/26 11:26:54;;;;;;;3.90;2.40;;;;;;;;;;773163;179;918053;-62
2023/07/26 11:29:20;;;;;;;4.80;3.03;;;;;;;;;;774303;180;913692;-61
2023/07/26 11:31:46;;;;;;;4.60;3.23;;;;;;;;;;772700;180;915044;-62
2023/07/26 11:34:13;;;;;;;4.50;2.97;;;;;;;;;;780065;180;918423;-68
2023/07/26 11:36:38;;;;;;;4.32;3.30;;;;;;;;;;774217;179;921135;-61
2023/07/26 11:39:04;;;;;;;4.90;3.00;;;;;;;;;;773482;180;919848;-62
2023/07/26 11:41:30;;;;;;;4.10;2.17;;;;;;;;;;779334;179;919264;-62
2023/07/26 11:43:56;;;;;;;3.30;2.37;;;;;;;;;;773881;180;918144;-67
2023/07/26 11:46:26;;;;;;;3.95;2.70;;;;;;;;;;763799;180;2045851;-68
2023/07/26 11:48:53;;;;;;;3.70;2.50;;;;;;;;;;771965;181;919198;-67
2023/07/26 11:51:17;;;;;;;4.80;2.10;;;;;;;;;;779293;180;918980;-62
2023/07/26 11:53:43;;;;;;;4.80;2.70;;;;;;;;;;772747;179;920082;-67
2023/07/26 11:56:09;;;;;;;4.50;2.63;;;;;;;;;;771198;180;918610;-62
2023/07/26 11:58:35;;;;;;;4.07;2.60;;;;;;;;;;775661;180;918494;-62
2023/07/26 12:01:02;;;;;;;4.25;2.80;;;;;;;;;;774277;179;920456;-68
2023/07/26 12:03:28;;;;;;;4.83;2.80;;;;;;;;;;772843;181;919120;-67
2023/07/26 12:05:54;;;;;;;6.13;3.50;;;;;;;;;;780106;179;917848;-67
2023/07/26 12:08:20;;;;;;;5.30;2.97;;;;;;;;;;777170;179;826545;-62
2023/07/26 12:10:46;;;;;;;7.10;2.97;;;;;;;;;;774937;179;916256;-62
2023/07/26 12:13:17;;;;;;;3.77;2.77;;;;;;;;;;774602;179;912120;-67
2023/07/26 12:15:51;;;;;;;3.90;3.03;;;;;;;;;;778271;180;919441;-62
2023/07/26 12:18:17;;;;;;;4.60;2.47;;;;;;;;;;780985;179;919317;-61
2023/07/26 12:20:48;;;;;;;5.40;2.23;;;;;;;;;;772548;179;785265;-62
2023/07/26 12:23:14;;;;;;;3.93;2.40;;;;;;;;;;774813;179;918619;-62
2023/07/26 12:25:40;;;;;;;2.97;1.97;;;;;;;;;;773347;180;815763;-68
2023/07/26 12:28:06;;;;;;;3.37;2.10;;;;;;;;;;775078;180;919021;-67
2023/07/26 12:30:32;;;;;;;2.70;1.77;;;;;;;;;;774458;180;924415;-67
2023/07/26 12:33:04;;;;;;;3.40;2.00;;;;;;;;;;780256;179;919110;-68
2023/07/26 12:35:29;;;;;;;6.40;2.23;;;;;;;;;;778859;180;839964;-61
2023/07/26 12:37:55;;;;;;;3.87;2.10;;;;;;;;;;775729;179;913609;-60
2023/07/26 12:40:21;;;;;;;3.30;2.37;;;;;;;;;;772366;180;818259;-61
2023/07/26 12:42:47;;;;;;;2.40;1.70;;;;;;;;;;773103;180;919359;-68
2023/07/26 12:45:13;;;;;;;3.37;2.03;;;;;;;;;;772830;179;917195;-66
2023/07/26 12:47:39;;;;;;;4.10;1.97;;;;;;;;;;773098;180;921165;-60
2023/07/26 12:50:05;;;;;;;3.83;1.80;;;;;;;;;;781823;180;714443;-66
2023/07/26 12:52:31;;;;;;;3.60;2.20;;;;;;;;;;775021;180;919186;-59
2023/07/26 12:54:57;;;;;;;8.23;2.40;;;;;;;;;;773958;180;916459;-65
2023/07/26 12:57:22;;;;;;;4.63;2.50;;;;;;;;;;775483;180;920198;-65
2023/07/26 12:59:48;;;;;;;3.53;2.00;;;;;;;;;;779257;179;919276;-66
2023/07/26 13:02:14;;;;;;;5.00;2.60;;;;;;;;;;774874;180;921849;-66
2023/07/26 13:04:40;;;;;;;4.13;2.07;;;;;;;;;;774232;180;918903;-66
2023/07/26 13:07:06;;;;;;;3.50;2.67;;;;;;;;;;779208;180;919377;-66
2023/07/26 13:09:32;;;;;;;4.80;2.67;;;;;;;;;;773020;179;918972;-66
2023/07/26 13:11:58;;;;;;;3.83;2.47;;;;;;;;;;773134;179;922130;-61
2023/07/26 13:14:23;;;;;;;3.60;2.87;;;;;;;;;;779746;179;912233;-60
2023/07/26 13:16:49;;;;;;;3.77;2.47;;;;;;;;;;770205;179;918615;-60
2023/07/26 13:19:15;;;;;;;3.47;2.43;;;;;;;;;;773850;180;847694;-59
2023/07/26 13:21:41;;;;;;;3.20;2.22;;;;;;;;;;774285;179;920468;-59
2023/07/26 13:24:07;;;;;;;3.37;2.07;;;;;;;;;;773744;180;920779;-65
2023/07/26 13:26:33;;;;;;;4.20;2.40;;;;;;;;;;776630;179;714976;-59
2023/07/26 13:28:58;;;;;;;3.27;2.20;;;;;;;;;;774649;179;919708;-65
2023/07/26 13:31:24;;;;;;;9.33;2.73;;;;;;;;;;778826;179;918366;-61
2023/07/26 13:33:50;;;;;;;4.50;2.50;;;;;;;;;;778118;179;919251;-60
2023/07/26 13:36:16;;;;;;;3.22;2.53;;;;;;;;;;776402;179;919795;-60
2023/07/26 13:38:42;;;;;;;4.47;2.50;;;;;;;;;;782349;179;820639;-66
2023/07/26 13:41:08;;;;;;;3.97;2.20;;;;;;;;;;773172;178;918261;-65
2023/07/26 13:43:33;;;;;;;3.30;2.33;;;;;;;;;;775795;179;919429;-59
2023/07/26 13:45:59;;;;;;;4.33;2.93;;;;;;;;;;774768;180;916940;-66
2023/07/26 13:48:25;;;;;;;3.33;2.10;;;;;;;;;;769344;180;932754;-62
2023/07/26 13:50:51;;;;;;;4.07;2.60;;;;;;;;;;775742;179;918875;-60
2023/07/26 13:53:17;;;;;;;6.80;2.30;;;;;;;;;;774010;179;916016;-66
2023/07/26 13:55:43;;;;;;;4.57;2.70;;;;;;;;;;782390;179;915205;-60
2023/07/26 13:58:09;;;;;;;4.20;2.23;;;;;;;;;;778633;178;914480;-59
2023/07/26 14:00:34;;;;;;;3.10;2.23;;;;;;;;;;772602;180;913170;-67
2023/07/26 14:03:00;;;;;;;4.70;2.10;;;;;;;;;;774593;180;919044;-58
2023/07/26 14:05:26;;;;;;;5.00;2.67;;;;;;;;;;768176;180;816954;-61
2023/07/26 14:07:52;;;;;;;3.47;2.50;;;;;;;;;;774855;179;917181;-67
2023/07/26 14:10:18;;;;;;;4.90;2.28;;;;;;;;;;778373;179;919551;-59
2023/07/26 14:12:44;;;;;;;3.50;2.00;;;;;;;;;;770400;180;919785;-59
2023/07/26 14:15:09;;;;;;;4.70;2.03;;;;;;;;;;773483;180;918930;-59
2023/07/26 14:17:36;;;;;;;2.90;2.00;;;;;;;;;;773109;181;920802;-60